createdAt,value
2022-09-07T00:02:22.439Z,7.03
2022-09-07T00:04:49.196Z,6.20
2022-09-07T00:07:15.931Z,7.93
2022-09-07T00:09:42.671Z,8.37
2022-09-07T00:12:09.925Z,6.87
2022-09-07T00:14:36.731Z,8.47
2022-09-07T00:17:03.529Z,6.80
2022-09-07T00:19:30.332Z,10.30
2022-09-07T00:21:57.031Z,7.70
2022-09-07T00:24:23.916Z,10.63
2022-09-07T00:26:50.627Z,10.13
2022-09-07T00:29:17.333Z,8.23
2022-09-07T00:31:44.161Z,7.13
2022-09-07T00:34:11.152Z,5.90
2022-09-07T00:36:37.895Z,8.03
2022-09-07T00:39:05.887Z,8.90
2022-09-07T00:41:32.951Z,7.17
2022-09-07T00:44:38.157Z,9.27
2022-09-07T00:47:16.040Z,6.80
2022-09-07T00:49:45.750Z,8.47
2022-09-07T00:52:13.404Z,6.20
2022-09-07T00:54:45.155Z,7.17
2022-09-07T00:57:12.488Z,6.53
2022-09-07T00:59:45.721Z,9.77
2022-09-07T01:02:15.787Z,7.97
2022-09-07T01:04:43.731Z,7.60
2022-09-07T01:07:10.692Z,6.17
2022-09-07T01:09:38.344Z,8.43
2022-09-07T01:12:05.747Z,5.13
2022-09-07T01:14:41.033Z,4.80
2022-09-07T01:17:38.452Z,5.17
2022-09-07T01:20:42.795Z,6.27
2022-09-07T01:23:27.609Z,5.03
2022-09-07T01:26:18.408Z,5.80
2022-09-07T01:28:49.513Z,6.07
2022-09-07T01:31:25.397Z,6.37
2022-09-07T01:34:20.439Z,7.53
2022-09-07T01:37:14.439Z,3.27
2022-09-07T01:39:51.497Z,4.73
2022-09-07T01:42:23.624Z,4.00
2022-09-07T01:44:56.033Z,4.63
2022-09-07T01:47:39.985Z,5.97
2022-09-07T01:50:16.908Z,6.50
2022-09-07T01:53:01.208Z,6.07
2022-09-07T01:55:42.664Z,5.53
2022-09-07T01:58:19.271Z,4.73
2022-09-07T02:00:50.970Z,4.30
2022-09-07T02:03:30.884Z,5.27
2022-09-07T02:06:05.268Z,7.40
2022-09-07T02:08:55.574Z,8.47
2022-09-07T02:11:29.088Z,7.07
2022-09-07T02:14:01.414Z,6.37
2022-09-07T02:16:30.076Z,9.27
2022-09-07T02:19:02.751Z,7.27
2022-09-07T02:21:34.783Z,5.97
2022-09-07T02:24:07.233Z,5.10
2022-09-07T02:26:37.491Z,5.57
2022-09-07T02:29:04.438Z,6.10
2022-09-07T02:31:31.366Z,5.67
2022-09-07T02:33:58.296Z,7.37
2022-09-07T02:36:28.287Z,4.53
2022-09-07T02:38:55.009Z,5.90
2022-09-07T02:41:34.994Z,6.47
2022-09-07T02:44:04.561Z,4.47
2022-09-07T02:46:40.503Z,4.77
2022-09-07T02:49:24.443Z,4.43
2022-09-07T02:52:12.336Z,7.17
2022-09-07T02:54:46.131Z,6.13
2022-09-07T02:57:27.418Z,3.60
2022-09-07T03:00:07.225Z,6.10
2022-09-07T03:03:09.412Z,6.20
2022-09-07T03:05:41.769Z,5.53
2022-09-07T03:08:31.515Z,4.90
2022-09-07T03:10:59.181Z,4.40
2022-09-07T03:13:28.954Z,3.87
2022-09-07T03:15:56.813Z,4.67
2022-09-07T03:18:25.436Z,5.20
2022-09-07T03:20:52.631Z,5.67
2022-09-07T03:23:19.394Z,5.00
2022-09-07T03:25:47.623Z,5.00
2022-09-07T03:28:14.489Z,3.97
2022-09-07T03:30:47.123Z,4.80
2022-09-07T03:33:17.760Z,3.80
2022-09-07T03:35:45.519Z,5.83
2022-09-07T03:38:12.704Z,5.90
2022-09-07T03:40:39.620Z,7.30
2022-09-07T03:43:06.541Z,7.87
2022-09-07T03:45:33.713Z,6.00
2022-09-07T03:48:00.464Z,7.00
2022-09-07T03:50:27.248Z,5.40
2022-09-07T03:52:53.961Z,5.10
2022-09-07T03:55:21.432Z,4.10
2022-09-07T03:57:48.144Z,5.30
2022-09-07T04:00:15.003Z,3.30
2022-09-07T04:02:42.156Z,6.27
2022-09-07T04:05:09.363Z,5.37
2022-09-07T04:07:36.446Z,9.43
2022-09-07T04:10:04.136Z,6.80
2022-09-07T04:12:30.908Z,5.97
2022-09-07T04:14:57.639Z,3.90
2022-09-07T04:17:24.401Z,6.10
2022-09-07T04:19:51.115Z,5.50
2022-09-07T04:22:17.876Z,3.57
2022-09-07T04:24:44.590Z,3.97
2022-09-07T04:27:11.339Z,4.13
2022-09-07T04:29:38.272Z,7.53
2022-09-07T04:32:05.110Z,4.50
2022-09-07T04:34:31.903Z,3.83
2022-09-07T04:36:58.623Z,6.07
2022-09-07T04:39:25.546Z,5.73
2022-09-07T04:41:52.344Z,8.83
2022-09-07T04:44:19.269Z,7.03
2022-09-07T04:46:45.964Z,10.57
2022-09-07T04:49:12.740Z,6.63
2022-09-07T04:51:42.514Z,5.40
2022-09-07T04:54:10.131Z,7.47
2022-09-07T04:56:37.015Z,7.47
2022-09-07T04:59:04.300Z,5.00
2022-09-07T05:01:31.404Z,7.73
2022-09-07T05:04:01.223Z,5.77
2022-09-07T05:06:28.801Z,6.03
2022-09-07T05:08:55.692Z,8.17
2022-09-07T05:11:28.833Z,5.30
2022-09-07T05:13:58.131Z,8.07
2022-09-07T05:16:25.899Z,6.80
2022-09-07T05:18:54.996Z,9.03
2022-09-07T05:21:25.367Z,6.73
2022-09-07T05:23:53.901Z,7.73
2022-09-07T05:26:22.608Z,6.93
2022-09-07T05:28:50.393Z,11.93
2022-09-07T05:31:20.295Z,6.83
2022-09-07T05:36:39.206Z,6.47
2022-09-07T05:39:07.224Z,6.67
2022-09-07T05:41:33.953Z,10.27
2022-09-07T05:46:48.109Z,6.47
2022-09-07T05:49:14.847Z,8.40
2022-09-07T05:51:41.580Z,6.57
2022-09-07T05:54:08.448Z,7.00
2022-09-07T05:56:36.156Z,6.30
2022-09-07T05:59:03.643Z,5.93
2022-09-07T06:01:30.822Z,8.30
2022-09-07T06:03:57.841Z,6.33
2022-09-07T06:06:24.722Z,11.37
2022-09-07T06:08:53.402Z,6.37
2022-09-07T06:11:22.306Z,8.03
2022-09-07T06:13:49.858Z,7.43
2022-09-07T06:16:18.558Z,13.60
2022-09-07T06:18:48.143Z,8.20
2022-09-07T06:21:18.756Z,7.53
2022-09-07T06:23:46.928Z,8.77
2022-09-07T06:26:15.180Z,5.87
2022-09-07T06:28:49.716Z,9.50
2022-09-07T06:31:20.347Z,9.97
2022-09-07T06:33:48.081Z,7.97
2022-09-07T06:36:20.486Z,8.90
2022-09-07T06:38:47.965Z,8.60
2022-09-07T06:44:07.856Z,8.93
2022-09-07T06:49:21.447Z,16.23
2022-09-07T06:51:48.175Z,13.23
2022-09-07T06:57:08.485Z,11.10
2022-09-07T06:59:35.706Z,9.77
2022-09-07T07:02:02.492Z,13.50
2022-09-07T07:04:29.427Z,13.10
2022-09-07T07:06:56.169Z,13.13
2022-09-07T07:09:23.045Z,18.60
2022-09-07T07:11:49.776Z,14.73
2022-09-07T07:14:17.875Z,12.10
2022-09-07T07:16:45.676Z,14.60
2022-09-07T07:19:12.919Z,12.33
2022-09-07T07:22:05.575Z,16.30
2022-09-07T07:24:26.411Z,12.20
2022-09-07T07:26:53.171Z,12.90
2022-09-07T07:29:21.907Z,16.17
2022-09-07T07:31:49.528Z,12.73
2022-09-07T07:34:16.372Z,13.33
2022-09-07T07:36:43.181Z,14.77
2022-09-07T07:41:59.030Z,16.13
2022-09-07T07:44:28.651Z,16.03
2022-09-07T07:46:55.555Z,16.17
2022-09-07T07:49:22.368Z,13.40
2022-09-07T07:54:36.935Z,14.77
2022-09-07T07:57:05.246Z,14.43
2022-09-07T07:59:32.031Z,15.43
2022-09-07T08:02:04.412Z,15.00
2022-09-07T08:04:35.199Z,18.00
2022-09-07T08:07:08.687Z,18.87
2022-09-07T08:09:41.185Z,15.33
2022-09-07T08:12:09.703Z,18.60
2022-09-07T08:14:40.834Z,18.67
2022-09-07T08:17:09.904Z,20.27
2022-09-07T08:19:36.680Z,21.40
2022-09-07T08:22:03.954Z,22.80
2022-09-07T08:24:34.619Z,20.73
2022-09-07T08:27:01.956Z,22.07
2022-09-07T08:29:32.571Z,20.53
2022-09-07T08:32:01.888Z,18.37
2022-09-07T08:34:28.671Z,20.27
2022-09-07T08:36:55.398Z,22.00
2022-09-07T08:39:22.244Z,22.77
2022-09-07T08:42:01.422Z,25.87
2022-09-07T08:44:31.834Z,31.37
2022-09-07T08:47:40.279Z,28.97
2022-09-07T08:50:33.551Z,31.17
2022-09-07T08:53:19.549Z,28.57
2022-09-07T08:55:51.719Z,25.97
2022-09-07T08:58:49.732Z,24.40
2022-09-07T09:01:31.047Z,30.57
2022-09-07T09:07:15.884Z,24.10
2022-09-07T09:09:55.011Z,24.77
2022-09-07T09:12:37.510Z,20.40
2022-09-07T09:15:33.626Z,18.13
2022-09-07T09:18:17.279Z,20.87
2022-09-07T09:21:02.501Z,21.43
2022-09-07T09:23:37.973Z,22.03
2022-09-07T09:26:12.105Z,15.30
2022-09-07T09:28:39.782Z,18.13
2022-09-07T09:31:06.840Z,20.87
2022-09-07T09:33:33.589Z,17.13
2022-09-07T09:36:02.072Z,15.57
2022-09-07T09:38:40.287Z,14.07
2022-09-07T09:41:12.640Z,14.60
2022-09-07T09:43:45.667Z,15.23
2022-09-07T09:46:34.235Z,15.60
2022-09-07T09:49:06.645Z,14.43
2022-09-07T09:54:42.051Z,12.30
2022-09-07T09:57:16.434Z,11.50
2022-09-07T10:00:01.945Z,14.27
2022-09-07T10:05:40.742Z,13.67
2022-09-07T10:08:24.846Z,12.47
2022-09-07T10:10:52.601Z,11.47
2022-09-07T10:13:35.197Z,11.00
2022-09-07T10:16:09.591Z,11.87
2022-09-07T10:18:41.730Z,10.87
2022-09-07T10:21:26.793Z,11.47
2022-09-07T10:24:15.508Z,9.27
2022-09-07T10:26:47.220Z,9.87
2022-09-07T10:29:29.875Z,10.97
2022-09-07T10:32:09.437Z,11.73
2022-09-07T10:34:52.544Z,9.00
2022-09-07T10:37:27.128Z,8.60
2022-09-07T10:40:31.803Z,9.63
2022-09-07T10:43:21.550Z,9.40
2022-09-07T10:46:01.456Z,7.30
2022-09-07T10:48:45.672Z,7.17
2022-09-07T10:51:43.075Z,7.57
2022-09-07T10:54:36.464Z,6.23
2022-09-07T10:57:27.505Z,7.80
2022-09-07T11:00:21.582Z,6.23
2022-09-07T11:03:25.846Z,8.90
2022-09-07T11:06:08.349Z,5.40
2022-09-07T11:09:17.872Z,3.97
2022-09-07T11:12:04.719Z,5.43
2022-09-07T11:14:54.767Z,4.63
2022-09-07T11:17:26.015Z,8.03
2022-09-07T11:20:17.289Z,7.87
2022-09-07T11:22:49.668Z,5.80
2022-09-07T11:25:33.487Z,4.67
2022-09-07T11:28:13.451Z,7.60
2022-09-07T11:30:49.900Z,5.40
2022-09-07T11:33:25.416Z,5.23
2022-09-07T11:35:59.639Z,6.10
2022-09-07T11:43:28.198Z,6.07
2022-09-07T11:46:04.932Z,4.27
2022-09-07T11:48:39.967Z,5.47
2022-09-07T11:51:12.970Z,5.67
2022-09-07T11:53:45.605Z,5.27
2022-09-07T11:56:20.979Z,3.17
2022-09-07T11:59:11.735Z,5.03
2022-09-07T12:02:02.200Z,5.97
2022-09-07T12:04:54.142Z,4.83
2022-09-07T12:08:04.734Z,8.90
2022-09-07T12:10:55.327Z,4.73
2022-09-07T12:13:32.138Z,5.10
2022-09-07T12:16:19.692Z,8.37
2022-09-07T12:19:11.915Z,4.57
2022-09-07T12:21:53.719Z,4.03
2022-09-07T12:24:41.408Z,6.90
2022-09-07T12:27:20.305Z,6.60
2022-09-07T12:30:10.449Z,4.20
2022-09-07T12:32:54.930Z,5.83
2022-09-07T12:35:31.636Z,4.47
2022-09-07T12:38:05.879Z,4.97
2022-09-07T12:40:33.226Z,5.43
2022-09-07T12:43:15.224Z,3.87
2022-09-07T12:45:44.648Z,3.60
2022-09-07T12:48:17.501Z,6.43
2022-09-07T12:51:06.251Z,4.43
2022-09-07T12:53:48.372Z,5.67
2022-09-07T12:56:36.814Z,2.93
2022-09-07T12:59:38.302Z,4.03
2022-09-07T13:02:18.965Z,3.67
2022-09-07T13:04:52.838Z,7.00
2022-09-07T13:07:34.881Z,4.20
2022-09-07T13:10:04.315Z,3.35
2022-09-07T13:12:55.245Z,3.17
2022-09-07T13:15:41.099Z,7.95
2022-09-07T13:18:28.205Z,4.07
2022-09-07T13:21:07.004Z,5.35
2022-09-07T13:23:37.917Z,4.45
2022-09-07T13:26:09.038Z,5.80
2022-09-07T13:28:54.814Z,5.63
2022-09-07T13:31:30.914Z,3.60
2022-09-07T13:33:57.717Z,4.78
2022-09-07T13:36:40.172Z,3.30
2022-09-07T13:39:12.659Z,3.13
2022-09-07T13:41:49.212Z,5.90
2022-09-07T13:44:25.669Z,2.92
2022-09-07T13:47:11.405Z,2.60
2022-09-07T13:49:56.074Z,2.95
2022-09-07T13:52:38.648Z,2.07
2022-09-07T13:55:26.826Z,1.63
2022-09-07T13:58:17.842Z,3.03
2022-09-07T14:00:56.390Z,1.98
2022-09-07T14:03:27.735Z,2.53
2022-09-07T14:06:22.480Z,2.90
2022-09-07T14:08:52.670Z,6.63
2022-09-07T14:11:28.945Z,2.83
2022-09-07T14:14:29.386Z,6.00
2022-09-07T14:17:04.055Z,2.87
2022-09-07T14:19:38.036Z,3.90
2022-09-07T14:22:22.304Z,5.30
2022-09-07T14:24:57.808Z,1.80
2022-09-07T14:27:30.316Z,4.30
2022-09-07T14:30:24.051Z,2.60
2022-09-07T14:32:53.404Z,3.43
2022-09-07T14:35:22.954Z,2.13
2022-09-07T14:37:50.601Z,3.70
2022-09-07T14:40:25.458Z,2.60
2022-09-07T14:42:54.035Z,3.33
2022-09-07T14:45:23.594Z,2.07
2022-09-07T14:47:52.677Z,5.17
2022-09-07T14:50:21.780Z,3.13
2022-09-07T14:55:43.900Z,1.90
2022-09-07T14:58:13.611Z,4.63
2022-09-07T15:00:43.612Z,1.90
2022-09-07T15:03:28.444Z,3.47
2022-09-07T15:06:01.129Z,5.00
2022-09-07T15:08:40.461Z,2.97
2022-09-07T15:11:35.674Z,2.80
2022-09-07T15:14:08.784Z,4.23
2022-09-07T15:16:39.115Z,1.93
2022-09-07T15:19:18.515Z,3.83
2022-09-07T15:21:45.797Z,3.80
2022-09-07T15:24:12.491Z,5.03
2022-09-07T15:27:04.314Z,2.63
2022-09-07T15:29:32.141Z,4.80
2022-09-07T15:32:04.297Z,3.77
2022-09-07T15:34:32.372Z,2.47
2022-09-07T15:37:00.183Z,4.37
2022-09-07T15:39:34.383Z,3.37
2022-09-07T15:42:59.483Z,4.10
2022-09-07T15:44:50.223Z,3.40
2022-09-07T15:50:05.964Z,3.37
2022-09-07T15:52:32.947Z,3.63
2022-09-07T15:54:59.672Z,3.00
2022-09-07T16:00:14.417Z,2.83
2022-09-07T16:05:31.187Z,2.87
2022-09-07T16:10:53.466Z,2.43
2022-09-07T16:13:20.871Z,2.17
2022-09-07T16:15:48.858Z,3.00
2022-09-07T16:18:17.964Z,4.27
2022-09-07T16:20:45.672Z,3.80
2022-09-07T16:23:15.217Z,2.20
2022-09-07T16:25:43.103Z,2.30
2022-09-07T16:28:10.195Z,3.67
2022-09-07T16:30:40.551Z,4.30
2022-09-07T16:33:07.902Z,2.93
2022-09-07T16:35:34.840Z,5.37
2022-09-07T16:40:50.755Z,3.73
2022-09-07T16:43:17.663Z,3.43
2022-09-07T16:48:32.884Z,5.27
2022-09-07T16:51:02.550Z,2.43
2022-09-07T16:53:31.760Z,3.80
2022-09-07T16:56:09.569Z,4.03
2022-09-07T16:58:38.383Z,2.83
2022-09-07T17:01:06.759Z,3.97
2022-09-07T17:03:34.148Z,3.47
2022-09-07T17:06:01.401Z,4.03
2022-09-07T17:08:28.463Z,3.37
2022-09-07T17:11:00.252Z,2.50
2022-09-07T17:13:27.345Z,2.95
2022-09-07T17:15:54.163Z,1.97
2022-09-07T17:19:28.880Z,3.27
2022-09-07T17:21:07.895Z,3.73
2022-09-07T17:23:44.531Z,4.27
2022-09-07T17:26:19.494Z,3.77
2022-09-07T17:28:49.911Z,4.47
2022-09-07T17:34:13.370Z,6.03
2022-09-07T17:36:40.620Z,3.60
2022-09-07T17:39:16.823Z,2.03
2022-09-07T17:41:45.278Z,5.00
2022-09-07T17:44:12.410Z,2.60
2022-09-07T17:46:39.594Z,5.63
2022-09-07T17:49:10.144Z,3.53
2022-09-07T17:51:37.035Z,3.90
2022-09-07T17:54:10.253Z,1.53
2022-09-07T17:56:38.695Z,4.07
2022-09-07T18:01:54.161Z,4.80
2022-09-07T18:04:21.620Z,3.77
2022-09-07T18:06:48.390Z,1.73
2022-09-07T18:09:15.275Z,3.23
2022-09-07T18:11:45.543Z,2.93
2022-09-07T18:14:14.397Z,4.63
2022-09-07T18:16:41.944Z,4.30
2022-09-07T18:19:08.809Z,3.83
2022-09-07T18:21:37.315Z,2.60
2022-09-07T18:24:07.595Z,2.20
2022-09-07T18:26:38.293Z,3.70
2022-09-07T18:29:10.452Z,4.03
2022-09-07T18:31:45.946Z,6.43
2022-09-07T18:34:12.860Z,3.63
2022-09-07T18:36:43.711Z,6.27
2022-09-07T18:39:10.793Z,5.93
2022-09-07T18:41:40.849Z,2.10
2022-09-07T18:45:27.331Z,4.83
2022-09-07T18:46:54.841Z,5.67
2022-09-07T18:49:21.553Z,3.43
2022-09-07T18:54:34.913Z,3.87
2022-09-07T18:57:01.647Z,3.13
2022-09-07T18:59:29.791Z,4.17
2022-09-07T19:02:01.520Z,5.80
2022-09-07T19:05:49.519Z,4.67
2022-09-07T19:07:17.012Z,3.37
2022-09-07T19:09:43.664Z,4.90
2022-09-07T19:12:10.439Z,4.93
2022-09-07T19:14:37.212Z,3.90
2022-09-07T19:17:03.976Z,4.20
2022-09-07T19:19:30.864Z,2.37
2022-09-07T19:21:58.194Z,5.87
2022-09-07T19:24:25.697Z,3.83
2022-09-07T19:26:55.728Z,9.90
2022-09-07T19:29:25.130Z,5.30
2022-09-07T19:32:06.575Z,3.03
2022-09-07T19:34:38.945Z,3.77
2022-09-07T19:37:07.386Z,3.83
2022-09-07T19:39:34.401Z,4.53
2022-09-07T19:42:03.950Z,8.07
2022-09-07T19:44:31.039Z,3.70
2022-09-07T19:46:57.898Z,3.17
2022-09-07T19:49:24.634Z,2.03
2022-09-07T19:51:51.942Z,2.97
2022-09-07T19:54:19.099Z,3.17
2022-09-07T19:56:45.992Z,4.83
2022-09-07T19:59:13.217Z,3.20
2022-09-07T20:01:40.603Z,5.37
2022-09-07T20:04:13.795Z,5.33
2022-09-07T20:06:42.857Z,2.53
2022-09-07T20:09:10.445Z,2.17
2022-09-07T20:11:37.210Z,3.63
2022-09-07T20:14:04.128Z,4.30
2022-09-07T20:16:33.781Z,3.53
2022-09-07T20:19:00.512Z,2.33
2022-09-07T20:21:27.236Z,2.83
2022-09-07T20:23:53.981Z,3.80
2022-09-07T20:26:21.747Z,5.80
2022-09-07T20:29:05.852Z,6.40
2022-09-07T20:31:41.659Z,5.33
2022-09-07T20:34:09.551Z,4.97
2022-09-07T20:36:36.631Z,4.93
2022-09-07T20:39:04.388Z,4.90
2022-09-07T20:41:33.853Z,2.70
2022-09-07T20:44:03.341Z,3.03
2022-09-07T20:46:30.823Z,4.80
2022-09-07T20:48:58.172Z,5.65
2022-09-07T20:51:25.065Z,6.50
2022-09-07T20:53:51.806Z,4.63
2022-09-07T20:56:23.495Z,4.93
2022-09-07T20:58:57.853Z,3.73
2022-09-07T21:01:24.961Z,5.47
2022-09-07T21:03:54.327Z,3.90
2022-09-07T21:06:22.293Z,3.43
2022-09-07T21:08:50.528Z,3.70
2022-09-07T21:11:20.612Z,3.77
2022-09-07T21:13:47.797Z,5.97
2022-09-07T21:16:16.176Z,3.90
2022-09-07T21:18:44.271Z,3.63
2022-09-07T21:21:20.389Z,3.73
2022-09-07T21:23:48.042Z,3.33
2022-09-07T21:26:14.825Z,9.83
2022-09-07T21:28:41.521Z,3.17
2022-09-07T21:31:09.213Z,3.50
2022-09-07T21:33:37.541Z,3.40
2022-09-07T21:36:12.499Z,4.30
2022-09-07T21:38:40.975Z,4.00
2022-09-07T21:41:13.703Z,2.83
2022-09-07T21:43:40.836Z,4.70
2022-09-07T21:46:16.604Z,2.83
2022-09-07T21:48:45.405Z,4.43
2022-09-07T21:51:13.457Z,3.87
2022-09-07T21:53:40.656Z,4.93
2022-09-07T21:56:12.640Z,3.83
2022-09-07T21:58:40.022Z,3.17
2022-09-07T22:01:16.824Z,4.80
2022-09-07T22:03:48.524Z,5.97
2022-09-07T22:06:15.296Z,2.87
2022-09-07T22:08:42.652Z,7.13
2022-09-07T22:11:12.239Z,3.73
2022-09-07T22:13:39.359Z,4.67
2022-09-07T22:16:07.310Z,3.37
2022-09-07T22:18:34.546Z,6.30
2022-09-07T22:21:03.028Z,4.13
2022-09-07T22:23:31.708Z,4.33
2022-09-07T22:25:58.928Z,8.90
2022-09-07T22:28:26.039Z,3.97
2022-09-07T22:30:54.666Z,2.50
2022-09-07T22:33:21.637Z,3.60
2022-09-07T22:35:48.686Z,4.87
2022-09-07T22:38:15.456Z,6.47
2022-09-07T22:40:42.225Z,5.27
2022-09-07T22:43:08.941Z,2.60
2022-09-07T22:45:35.669Z,6.10
2022-09-07T22:48:02.479Z,3.30
2022-09-07T22:50:29.167Z,3.93
2022-09-07T22:52:55.848Z,5.03
2022-09-07T22:55:22.512Z,2.80
2022-09-07T22:57:49.175Z,3.53
2022-09-07T23:00:16.137Z,3.07
2022-09-07T23:02:42.967Z,2.50
2022-09-07T23:05:10.148Z,3.90
2022-09-07T23:07:36.912Z,3.60
2022-09-07T23:10:03.955Z,2.30
2022-09-07T23:12:31.201Z,2.10
2022-09-07T23:14:57.900Z,2.87
2022-09-07T23:17:24.567Z,3.17
2022-09-07T23:19:51.239Z,4.47
2022-09-07T23:22:18.085Z,4.07
2022-09-07T23:24:44.771Z,4.97
2022-09-07T23:27:11.485Z,2.90
2022-09-07T23:29:38.316Z,3.13
2022-09-07T23:32:05.052Z,4.40
2022-09-07T23:34:31.745Z,4.37
2022-09-07T23:36:58.417Z,3.20
2022-09-07T23:39:25.095Z,2.87
2022-09-07T23:41:51.780Z,4.03
2022-09-07T23:44:18.544Z,3.30
2022-09-07T23:46:45.279Z,2.60
2022-09-07T23:49:11.981Z,8.33
2022-09-07T23:51:38.821Z,4.37
2022-09-07T23:54:05.631Z,4.73
2022-09-07T23:56:32.630Z,3.07
2022-09-07T23:58:59.320Z,7.00
